Time;durP1;ratioP1;P1;durP2;ratioP2;P2;SDS_P1;SDS_P2;PMS_P1;PMS_P2;Temp;Humidity;BMP_temperature;BMP_pressure;BME280_temperature;BME280_humidity;BME280_pressure;Samples;Min_cycle;Max_cycle;Signal;HPM_P1;HPM_P2
2023/08/13 00:01:57;;;;;;;5.30;4.80;;;;;;;25.09;68.42;97745.41;5087621;28;20618;-73
2023/08/13 00:04:22;;;;;;;7.53;5.07;;;;;;;25.09;67.80;97744.59;5079419;28;20224;-73
2023/08/13 00:06:48;;;;;;;8.20;4.73;;;;;;;25.05;67.60;97741.56;5086384;28;20327;-71
2023/08/13 00:09:13;;;;;;;5.00;4.50;;;;;;;25.05;67.21;97735.41;5086671;28;20242;-71
2023/08/13 00:11:39;;;;;;;6.70;5.07;;;;;;;25.00;67.20;97739.59;5100051;28;20193;-73
2023/08/13 00:14:04;;;;;;;5.20;4.60;;;;;;;24.99;66.83;97737.94;5091885;28;20269;-71
2023/08/13 00:16:29;;;;;;;7.20;4.70;;;;;;;24.95;66.93;97735.97;5088354;28;20293;-72
2023/08/13 00:18:55;;;;;;;5.53;5.03;;;;;;;24.91;67.03;97726.75;5092066;28;20185;-72
2023/08/13 00:21:20;;;;;;;8.90;5.07;;;;;;;24.87;67.24;97736.31;5090853;28;20182;-72
2023/08/13 00:23:46;;;;;;;8.93;5.17;;;;;;;24.81;67.12;97738.06;5094459;28;20217;-71
2023/08/13 00:26:12;;;;;;;6.87;5.10;;;;;;;24.78;66.91;97741.19;5091836;28;20205;-71
2023/08/13 00:28:37;;;;;;;7.23;5.00;;;;;;;24.70;67.09;97734.31;5089307;28;20189;-71
2023/08/13 00:31:02;;;;;;;11.27;5.57;;;;;;;24.62;67.59;97734.63;5087509;28;20213;-72
2023/08/13 00:33:28;;;;;;;7.37;5.33;;;;;;;24.60;67.64;97734.84;5091985;28;20182;-74
2023/08/13 00:35:53;;;;;;;9.90;5.10;;;;;;;24.57;67.43;97729.97;5091296;28;20229;-73
2023/08/13 00:38:19;;;;;;;6.03;4.70;;;;;;;24.54;67.88;97733.91;5095547;28;20201;-71
2023/08/13 00:40:44;;;;;;;14.53;4.47;;;;;;;24.54;67.66;97738.47;5085214;28;20198;-71
2023/08/13 00:43:10;;;;;;;5.03;4.53;;;;;;;24.55;67.77;97732.06;5097427;28;20224;-70
2023/08/13 00:45:35;;;;;;;5.37;4.87;;;;;;;24.55;67.81;97740.09;5084790;28;20228;-72
2023/08/13 00:48:02;;;;;;;5.83;4.67;;;;;;;24.57;67.75;97740.69;5084754;28;20197;-72
2023/08/13 00:50:28;;;;;;;5.10;4.70;;;;;;;24.61;67.96;97741.03;5066137;28;20704;-72
2023/08/13 00:52:54;;;;;;;5.53;4.50;;;;;;;24.59;67.93;97746.59;5090301;28;20984;-72
2023/08/13 00:55:19;;;;;;;7.17;4.70;;;;;;;24.57;67.52;97740.69;5088391;28;20436;-72
2023/08/13 00:57:45;;;;;;;9.70;4.73;;;;;;;24.49;67.26;97743.69;5091239;28;20220;-70
2023/08/13 01:00:11;;;;;;;5.87;4.70;;;;;;;24.45;67.21;97737.13;5091727;28;20177;-70
2023/08/13 01:02:38;;;;;;;7.43;4.60;;;;;;;24.41;67.04;97735.97;5087632;28;20729;-70
2023/08/13 01:05:05;;;;;;;7.50;5.40;;;;;;;24.25;67.67;97734.78;5084814;28;20479;-71
2023/08/13 01:07:46;;;;;;;6.40;4.67;;;;;;;24.25;67.89;97738.25;5090461;28;20424;-72
2023/08/13 01:10:21;;;;;;;6.80;5.03;;;;;;;24.31;67.76;97737.34;5087111;28;20799;-72
2023/08/13 01:12:59;;;;;;;8.00;4.97;;;;;;;24.32;67.56;97735.47;5090079;28;20432;-72
2023/08/13 01:15:32;;;;;;;7.97;5.00;;;;;;;24.32;67.39;97730.94;5088844;28;20447;-71
2023/08/13 01:17:58;;;;;;;10.13;4.83;;;;;;;24.24;66.81;97736.63;5089051;28;20436;-71
2023/08/13 01:20:28;;;;;;;10.27;5.00;;;;;;;24.19;67.48;97736.50;5085541;28;20426;-71
2023/08/13 01:22:54;;;;;;;6.20;4.87;;;;;;;24.20;67.09;97741.63;5088786;28;20608;-74
2023/08/13 01:25:20;;;;;;;4.80;4.30;;;;;;;24.20;67.53;97735.44;5092495;28;20447;-70
2023/08/13 01:27:58;;;;;;;4.77;4.37;;;;;;;24.19;67.89;97736.50;5089740;28;20314;-72
2023/08/13 01:30:43;;;;;;;8.13;4.07;;;;;;;24.24;67.77;97739.28;5098245;28;20435;-72
2023/08/13 01:33:09;;;;;;;12.93;4.63;;;;;;;24.24;67.60;97733.94;5087585;28;20841;-70
2023/08/13 01:35:35;;;;;;;4.70;3.80;;;;;;;24.21;67.50;97747.78;5089081;28;20518;-74
2023/08/13 01:38:02;;;;;;;5.73;4.13;;;;;;;24.19;67.34;97744.53;5092528;28;20212;-72
2023/08/13 01:40:28;;;;;;;5.27;3.80;;;;;;;24.13;67.55;97740.88;5089460;28;20973;-71
2023/08/13 01:42:54;;;;;;;6.03;3.90;;;;;;;24.10;67.71;97725.28;5091024;28;20559;-73
2023/08/13 01:45:19;;;;;;;4.27;3.90;;;;;;;24.00;68.43;97725.81;5087189;28;20573;-74
2023/08/13 01:47:45;;;;;;;4.33;3.93;;;;;;;23.98;68.72;97729.78;5086256;28;20258;-71
2023/08/13 01:50:11;;;;;;;4.97;3.83;;;;;;;23.99;68.68;97737.56;5090627;28;20189;-70
2023/08/13 01:52:36;;;;;;;7.37;4.10;;;;;;;23.95;68.78;97730.19;5091243;28;20787;-69
2023/08/13 01:55:03;;;;;;;4.93;3.80;;;;;;;24.01;69.02;97737.34;5084067;28;20240;-71
2023/08/13 01:57:29;;;;;;;9.83;4.03;;;;;;;24.07;68.89;97741.78;5087172;28;20711;-70
2023/08/13 01:59:54;;;;;;;7.60;4.57;;;;;;;24.06;68.38;97746.34;5089847;28;20419;-71
2023/08/13 02:02:20;;;;;;;8.63;4.17;;;;;;;24.00;68.96;97741.09;5088822;28;20212;-73
2023/08/13 02:04:45;;;;;;;8.37;4.60;;;;;;;24.02;68.34;97745.16;5088084;28;20281;-71
2023/08/13 02:07:10;;;;;;;5.30;3.90;;;;;;;24.04;68.58;97748.44;5090639;28;20212;-70
2023/08/13 02:09:36;;;;;;;5.83;4.00;;;;;;;24.02;67.94;97747.00;5094359;28;20614;-72
2023/08/13 02:12:01;;;;;;;4.73;4.23;;;;;;;24.02;67.84;97744.31;5090588;28;20533;-72
2023/08/13 02:14:27;;;;;;;4.97;3.87;;;;;;;24.02;68.36;97742.47;5095930;28;20221;-72
2023/08/13 02:16:53;;;;;;;3.90;3.60;;;;;;;24.03;67.88;97740.59;5085871;28;20251;-73
2023/08/13 02:19:18;;;;;;;5.50;3.97;;;;;;;24.04;68.10;97747.59;5089275;28;20561;-72
2023/08/13 02:21:43;;;;;;;6.67;3.50;;;;;;;24.04;68.02;97750.28;5095144;28;20277;-72
2023/08/13 02:24:09;;;;;;;6.20;4.07;;;;;;;24.03;68.13;97741.44;5089100;28;20230;-73
2023/08/13 02:26:34;;;;;;;5.77;4.17;;;;;;;23.99;67.78;97742.94;5090056;28;20231;-71
2023/08/13 02:29:00;;;;;;;4.50;3.50;;;;;;;23.96;67.97;97735.34;5089742;28;20197;-71
2023/08/13 02:31:25;;;;;;;7.10;4.37;;;;;;;23.93;67.87;97735.78;5086017;28;20200;-73
2023/08/13 02:33:51;;;;;;;6.87;3.70;;;;;;;23.96;68.04;97743.38;5082328;28;20280;-72
2023/08/13 02:36:16;;;;;;;6.83;3.90;;;;;;;23.95;67.92;97738.22;5081343;28;20210;-72
2023/08/13 02:38:41;;;;;;;7.70;3.67;;;;;;;23.96;67.99;97735.34;5085684;28;20278;-73
2023/08/13 02:41:07;;;;;;;5.50;3.67;;;;;;;23.98;68.11;97743.97;5092403;28;20189;-72
2023/08/13 02:43:49;;;;;;;7.80;3.90;;;;;;;23.90;68.01;97734.34;5088456;28;20213;-71
2023/08/13 02:46:14;;;;;;;7.13;3.97;;;;;;;23.92;68.17;97737.63;5090828;28;20235;-72
2023/08/13 02:48:39;;;;;;;7.23;3.50;;;;;;;23.93;68.11;97736.59;5093185;28;20980;-70
2023/08/13 02:51:05;;;;;;;5.60;4.33;;;;;;;23.85;68.31;97734.22;5087892;28;20266;-71
2023/08/13 02:53:30;;;;;;;7.53;3.90;;;;;;;23.84;68.17;97727.25;5089966;28;20319;-73
2023/08/13 02:55:56;;;;;;;5.57;4.00;;;;;;;23.81;68.37;97727.69;5089116;28;20237;-72
2023/08/13 02:58:21;;;;;;;4.13;3.73;;;;;;;23.85;68.72;97725.38;5084039;28;20213;-71
2023/08/13 03:00:46;;;;;;;5.10;4.00;;;;;;;23.88;68.60;97724.94;5088521;28;20268;-72
2023/08/13 03:03:12;;;;;;;6.07;4.10;;;;;;;23.91;68.83;97716.44;5088598;28;20225;-71
2023/08/13 03:05:37;;;;;;;4.33;4.00;;;;;;;23.90;68.84;97720.16;5086954;28;20210;-71
2023/08/13 03:08:03;;;;;;;5.07;4.60;;;;;;;23.89;68.73;97713.97;5088929;28;20322;-73
2023/08/13 03:10:29;;;;;;;4.17;3.80;;;;;;;23.90;68.66;97722.84;5087719;28;20186;-72
2023/08/13 03:12:54;;;;;;;7.20;4.23;;;;;;;23.88;68.78;97727.59;5080435;28;20522;-71
2023/08/13 03:15:20;;;;;;;4.37;3.97;;;;;;;23.89;68.70;97721.22;5083254;28;20284;-72
2023/08/13 03:17:45;;;;;;;4.27;3.80;;;;;;;23.89;69.03;97722.00;5082753;28;20197;-74
2023/08/13 03:20:11;;;;;;;4.50;3.80;;;;;;;23.87;69.08;97729.47;5070320;28;20836;-71
2023/08/13 03:22:37;;;;;;;8.80;4.10;;;;;;;23.82;69.04;97713.25;5086512;28;20305;-72
2023/08/13 03:25:03;;;;;;;10.90;4.10;;;;;;;23.80;68.71;97704.63;5081971;28;20733;-72
2023/08/13 03:27:28;;;;;;;6.07;3.80;;;;;;;23.81;69.12;97716.19;5084504;28;20189;-73
2023/08/13 03:29:54;;;;;;;7.67;3.77;;;;;;;23.82;69.29;97712.47;5089932;28;20221;-71
2023/08/13 03:32:20;;;;;;;5.37;3.80;;;;;;;23.86;69.24;97708.28;5081771;28;20193;-72
2023/08/13 03:34:45;;;;;;;4.50;4.10;;;;;;;23.90;68.86;97714.81;5085678;28;20974;-72
2023/08/13 03:37:11;;;;;;;6.37;4.20;;;;;;;23.85;68.89;97717.34;5084150;28;20185;-71
2023/08/13 03:39:36;;;;;;;6.00;3.83;;;;;;;23.86;69.52;97716.31;5089352;28;20193;-72
2023/08/13 03:42:02;;;;;;;6.70;4.13;;;;;;;23.89;69.22;97716.66;5091752;28;20210;-72
2023/08/13 03:44:27;;;;;;;5.50;3.70;;;;;;;23.95;69.28;97716.81;5092923;28;20231;-73
2023/08/13 03:46:53;;;;;;;4.00;3.63;;;;;;;23.97;69.38;97715.56;5096579;28;20212;-72
2023/08/13 03:49:18;;;;;;;5.70;3.90;;;;;;;24.00;69.32;97714.31;5092922;28;20282;-73
2023/08/13 03:51:43;;;;;;;4.93;3.60;;;;;;;24.00;69.06;97706.28;5092090;28;20303;-71
2023/08/13 03:54:09;;;;;;;4.90;4.00;;;;;;;24.02;69.07;97710.34;5093167;28;20618;-71
2023/08/13 03:56:34;;;;;;;3.80;3.57;;;;;;;24.01;69.00;97710.56;5092458;28;20418;-71
2023/08/13 03:59:00;;;;;;;4.23;3.70;;;;;;;23.96;68.92;97716.59;5102898;28;20184;-71
2023/08/13 04:01:25;;;;;;;4.53;3.37;;;;;;;23.95;68.80;97712.25;5097309;28;20708;-71
2023/08/13 04:03:51;;;;;;;5.23;3.60;;;;;;;23.91;68.76;97700.41;5095128;28;23319;-70
2023/08/13 04:06:16;;;;;;;7.70;3.37;;;;;;;23.93;69.05;97715.19;5094284;28;20290;-71
2023/08/13 04:08:41;;;;;;;5.23;3.93;;;;;;;23.91;68.81;97705.75;5098230;28;20276;-73
2023/08/13 04:11:07;;;;;;;7.40;3.80;;;;;;;23.89;69.05;97713.19;5097586;28;20216;-72
2023/08/13 04:13:32;;;;;;;4.93;4.47;;;;;;;23.86;68.95;97724.31;5088582;28;20182;-72
2023/08/13 04:15:58;;;;;;;5.50;4.30;;;;;;;23.83;69.23;97720.25;5102333;28;20296;-70
2023/08/13 04:18:23;;;;;;;4.20;3.80;;;;;;;23.82;69.50;97717.81;5091057;28;20200;-70
2023/08/13 04:20:49;;;;;;;4.47;4.13;;;;;;;23.79;69.44;97713.72;5098742;28;20748;-71
2023/08/13 04:23:14;;;;;;;5.43;4.07;;;;;;;23.70;69.42;97721.22;5092309;28;20350;-72
2023/08/13 04:25:40;;;;;;;5.20;3.50;;;;;;;23.71;69.61;97712.16;5092413;28;20888;-70
2023/08/13 04:28:06;;;;;;;5.57;4.30;;;;;;;23.73;69.62;97726.13;5089962;28;20214;-70
2023/08/13 04:30:31;;;;;;;5.73;4.23;;;;;;;23.75;69.79;97726.72;5096001;28;20189;-72
2023/08/13 04:32:57;;;;;;;4.33;3.77;;;;;;;23.80;69.71;97727.91;5092361;28;20226;-70
2023/08/13 04:35:22;;;;;;;4.93;3.80;;;;;;;23.83;69.77;97722.09;5087681;28;20209;-71
2023/08/13 04:37:49;;;;;;;10.97;4.03;;;;;;;23.87;69.85;97725.97;5092906;28;20216;-70
2023/08/13 04:40:14;;;;;;;8.40;4.70;;;;;;;23.89;69.53;97718.53;5094604;28;20657;-71
2023/08/13 04:42:41;;;;;;;4.90;4.30;;;;;;;23.94;69.81;97710.66;5092469;28;20483;-72
2023/08/13 04:45:07;;;;;;;4.90;4.00;;;;;;;23.94;69.51;97705.31;5101185;28;20215;-72
2023/08/13 04:47:33;;;;;;;4.83;4.40;;;;;;;23.97;69.54;97720.13;5093084;28;20423;-70
2023/08/13 04:49:58;;;;;;;4.73;4.20;;;;;;;23.92;69.84;97734.94;5090175;28;20193;-72
2023/08/13 04:52:24;;;;;;;4.33;4.03;;;;;;;23.90;69.82;97738.91;5096513;28;20662;-71
2023/08/13 04:54:49;;;;;;;5.63;3.97;;;;;;;23.85;69.85;97749.44;5092789;28;20189;-72
2023/08/13 04:57:15;;;;;;;4.60;4.10;;;;;;;23.82;70.41;97761.44;5088844;28;20333;-71
2023/08/13 04:59:40;;;;;;;6.60;4.00;;;;;;;23.83;70.54;97755.03;5089720;28;20658;-71
2023/08/13 05:02:06;;;;;;;4.80;4.20;;;;;;;23.84;70.61;97745.13;5089438;28;20778;-71
2023/08/13 05:04:31;;;;;;;5.40;3.93;;;;;;;23.78;70.84;97745.00;5083781;28;20197;-70
2023/08/13 05:06:56;;;;;;;4.07;3.77;;;;;;;23.78;71.28;97734.31;5088944;28;20240;-70
2023/08/13 05:09:22;;;;;;;12.03;4.60;;;;;;;23.84;71.13;97727.25;5089488;28;20192;-69
2023/08/13 05:11:47;;;;;;;5.80;4.20;;;;;;;23.88;70.84;97732.97;5089398;28;20280;-70
2023/08/13 05:14:13;;;;;;;8.00;4.80;;;;;;;23.90;70.96;97738.91;5085141;28;20190;-73
2023/08/13 05:16:38;;;;;;;8.20;4.87;;;;;;;23.89;71.67;97739.94;5087641;28;20653;-73
2023/08/13 05:19:04;;;;;;;7.40;4.50;;;;;;;23.93;71.71;97741.94;5079425;28;20190;-72
2023/08/13 05:21:30;;;;;;;7.03;4.77;;;;;;;23.97;72.05;97742.31;5098084;28;20203;-72
2023/08/13 05:23:55;;;;;;;4.93;4.30;;;;;;;23.98;71.87;97746.63;5087467;28;20213;-72
2023/08/13 05:26:21;;;;;;;6.97;3.90;;;;;;;23.96;72.12;97747.91;5089644;28;20210;-72
2023/08/13 05:28:47;;;;;;;5.60;4.60;;;;;;;23.97;72.11;97747.69;5085988;28;20273;-73
2023/08/13 05:31:13;;;;;;;5.83;4.40;;;;;;;23.98;72.14;97745.84;5088521;28;20523;-71
2023/08/13 05:33:38;;;;;;;5.50;4.30;;;;;;;24.01;72.03;97738.16;5086324;28;20208;-72
2023/08/13 05:36:04;;;;;;;5.20;4.63;;;;;;;24.00;71.96;97727.69;5086457;28;20292;-70
2023/08/13 05:38:31;;;;;;;11.40;4.67;;;;;;;24.00;72.07;97739.22;5090157;28;20185;-71
2023/08/13 05:40:56;;;;;;;4.80;4.40;;;;;;;24.00;72.48;97741.88;5082360;28;20681;-72
2023/08/13 05:43:22;;;;;;;6.53;4.10;;;;;;;24.01;72.22;97748.03;5089212;28;20535;-71
2023/08/13 05:45:47;;;;;;;8.47;4.50;;;;;;;23.97;72.50;97741.53;5092737;28;20232;-70
2023/08/13 05:48:13;;;;;;;6.10;5.10;;;;;;;23.97;72.54;97744.19;5091963;28;20200;-72
2023/08/13 05:50:38;;;;;;;4.97;4.57;;;;;;;23.95;72.80;97744.38;5089958;28;20196;-71
2023/08/13 05:53:04;;;;;;;5.97;5.07;;;;;;;23.97;72.68;97753.03;5093019;28;20209;-71
2023/08/13 05:55:29;;;;;;;11.30;5.00;;;;;;;24.00;72.47;97746.44;5088039;28;20205;-71
2023/08/13 05:57:55;;;;;;;7.47;4.60;;;;;;;23.97;72.42;97745.00;5081592;28;20220;-72
2023/08/13 06:00:20;;;;;;;6.57;5.50;;;;;;;23.98;72.65;97741.28;5089755;28;20204;-71
2023/08/13 06:02:46;;;;;;;14.90;5.00;;;;;;;24.01;72.66;97738.16;5092780;28;20213;-72
2023/08/13 06:05:11;;;;;;;4.50;4.10;;;;;;;24.04;72.76;97743.06;5092564;28;20216;-72
2023/08/13 06:07:37;;;;;;;4.60;4.20;;;;;;;24.04;73.01;97748.44;5093808;28;20367;-70
2023/08/13 06:10:04;;;;;;;6.27;5.13;;;;;;;24.03;72.91;97748.63;5086948;28;20213;-72
2023/08/13 06:12:29;;;;;;;8.60;5.10;;;;;;;24.02;72.93;97745.16;5081066;28;20185;-71
2023/08/13 06:14:55;;;;;;;6.13;5.40;;;;;;;23.98;72.63;97757.34;5086807;28;20459;-71
2023/08/13 06:17:20;;;;;;;8.33;5.30;;;;;;;24.02;72.99;97761.22;5087251;28;20194;-71
2023/08/13 06:19:46;;;;;;;11.43;5.40;;;;;;;24.03;73.00;97760.19;5083375;28;20650;-71
2023/08/13 06:22:11;;;;;;;8.40;5.37;;;;;;;24.08;73.10;97754.13;5089129;28;20296;-71
2023/08/13 06:24:37;;;;;;;6.87;4.77;;;;;;;24.08;72.86;97749.59;5092820;28;20189;-71
2023/08/13 06:27:02;;;;;;;5.10;4.60;;;;;;;24.15;73.03;97754.06;5089009;28;20213;-71
2023/08/13 06:29:28;;;;;;;6.00;5.50;;;;;;;24.17;72.69;97744.75;5088634;28;20196;-72
2023/08/13 06:31:53;;;;;;;8.10;4.97;;;;;;;24.19;73.10;97741.84;5084724;28;20186;-72
2023/08/13 06:34:20;;;;;;;5.10;4.70;;;;;;;24.15;72.56;97746.03;5091783;28;20200;-74
2023/08/13 06:36:45;;;;;;;6.10;5.27;;;;;;;24.18;72.68;97743.69;5093336;28;20209;-72
2023/08/13 06:39:11;;;;;;;8.00;4.97;;;;;;;24.21;72.41;97758.50;5095943;28;20475;-73
2023/08/13 06:41:36;;;;;;;6.47;4.83;;;;;;;24.18;72.56;97764.31;5100749;28;20188;-71
2023/08/13 06:44:03;;;;;;;5.97;5.03;;;;;;;24.19;72.38;97764.06;5088934;28;20234;-71
2023/08/13 06:46:29;;;;;;;6.20;5.03;;;;;;;24.21;72.71;97769.19;5091306;28;20744;-70
2023/08/13 06:48:54;;;;;;;12.50;5.27;;;;;;;24.23;72.47;97764.44;5087157;28;20518;-70
2023/08/13 06:51:19;;;;;;;7.67;5.70;;;;;;;24.17;72.24;97757.31;5089554;28;20281;-73
2023/08/13 06:53:45;;;;;;;6.37;5.37;;;;;;;24.10;72.25;97753.91;5095387;28;20896;-71
2023/08/13 06:56:10;;;;;;;5.87;5.30;;;;;;;23.99;72.53;97761.66;5088496;28;20610;-71
2023/08/13 06:58:36;;;;;;;8.33;5.23;;;;;;;24.04;73.21;97756.47;5101620;28;20582;-71
2023/08/13 07:01:03;;;;;;;9.30;5.20;;;;;;;24.11;73.10;97756.38;5081333;28;20201;-70
2023/08/13 07:03:28;;;;;;;6.27;5.33;;;;;;;24.17;73.30;97760.00;5087537;28;20207;-73
2023/08/13 07:05:54;;;;;;;6.13;4.80;;;;;;;24.16;73.31;97755.69;5093245;28;20444;-71
2023/08/13 07:08:21;;;;;;;5.33;4.80;;;;;;;24.21;73.16;97759.31;5088265;28;20197;-72
2023/08/13 07:10:46;;;;;;;8.10;4.90;;;;;;;24.21;72.97;97763.84;5096743;28;20806;-72
2023/08/13 07:13:12;;;;;;;7.20;4.67;;;;;;;24.22;72.97;97752.09;5089963;28;20427;-72
2023/08/13 07:15:37;;;;;;;5.00;4.50;;;;;;;24.21;72.63;97756.63;5094144;28;20216;-70
2023/08/13 07:18:03;;;;;;;5.10;4.60;;;;;;;24.22;72.53;97758.28;5089244;28;20192;-71
2023/08/13 07:20:28;;;;;;;5.83;4.77;;;;;;;24.21;72.73;97759.31;5087565;28;20205;-70
2023/08/13 07:22:58;;;;;;;7.10;4.97;;;;;;;24.22;72.69;97752.09;5087816;28;20447;-70
2023/08/13 07:25:23;;;;;;;5.43;4.90;;;;;;;24.28;72.78;97761.91;5089827;28;20251;-72
2023/08/13 07:27:49;;;;;;;7.27;5.10;;;;;;;24.34;72.93;97768.22;5085590;28;20447;-71
2023/08/13 07:30:14;;;;;;;8.67;5.50;;;;;;;24.38;72.90;97769.41;5088341;28;20557;-71
2023/08/13 07:32:41;;;;;;;7.40;5.00;;;;;;;24.43;72.96;97771.38;5094734;28;20238;-71
2023/08/13 07:35:07;;;;;;;5.43;4.50;;;;;;;24.47;73.00;97778.75;5084706;28;20452;-72
2023/08/13 07:37:33;;;;;;;5.43;4.37;;;;;;;24.48;72.73;97768.81;5088204;28;20511;-71
2023/08/13 07:39:59;;;;;;;4.80;4.40;;;;;;;24.47;72.74;97769.88;5081205;28;20431;-71
2023/08/13 07:42:24;;;;;;;7.00;4.90;;;;;;;24.50;72.77;97767.56;5091861;28;20487;-72
2023/08/13 07:44:50;;;;;;;4.40;4.00;;;;;;;24.49;72.40;97757.06;5091385;28;20631;-71
2023/08/13 07:47:16;;;;;;;5.00;4.50;;;;;;;24.51;71.55;97765.69;5089297;28;20280;-71
2023/08/13 07:49:42;;;;;;;4.23;3.83;;;;;;;24.56;71.79;97760.47;5089583;28;20246;-70
2023/08/13 07:52:08;;;;;;;5.80;4.10;;;;;;;24.68;71.87;97761.31;5079438;28;20429;-71
2023/08/13 07:54:35;;;;;;;4.33;3.93;;;;;;;24.86;71.62;97758.81;5084352;28;20189;-73
2023/08/13 07:57:00;;;;;;;5.70;4.70;;;;;;;25.00;71.35;97761.03;5083332;28;20958;-71
2023/08/13 07:59:26;;;;;;;5.13;4.20;;;;;;;25.14;71.45;97761.59;5085339;28;20478;-71
2023/08/13 08:01:51;;;;;;;5.87;4.50;;;;;;;25.11;70.52;97762.09;5094238;28;20264;-71
2023/08/13 08:04:17;;;;;;;5.50;4.13;;;;;;;25.19;69.94;97762.78;5082123;28;20392;-72
2023/08/13 08:06:42;;;;;;;14.03;3.90;;;;;;;25.19;69.55;97760.94;5087672;28;20301;-69
2023/08/13 08:09:08;;;;;;;6.40;3.70;;;;;;;25.17;69.26;97754.97;5087423;28;20239;-71
2023/08/13 08:11:33;;;;;;;5.13;3.97;;;;;;;25.20;68.98;97751.84;5087198;28;20281;-73
2023/08/13 08:13:59;;;;;;;5.03;3.90;;;;;;;25.28;68.68;97751.47;5087378;28;20170;-72
2023/08/13 08:16:24;;;;;;;4.63;4.13;;;;;;;25.28;68.39;97754.16;5086924;28;20716;-71
2023/08/13 08:18:50;;;;;;;7.80;5.00;;;;;;;25.31;68.04;97750.19;5087691;28;20260;-71
2023/08/13 08:21:15;;;;;;;9.43;4.27;;;;;;;25.32;67.82;97741.09;5085272;28;20186;-71
2023/08/13 08:23:41;;;;;;;4.07;3.70;;;;;;;25.38;67.86;97739.31;5087517;28;20300;-70
2023/08/13 08:26:06;;;;;;;6.17;4.30;;;;;;;25.42;67.96;97735.97;5090809;28;20291;-71
2023/08/13 08:28:32;;;;;;;5.40;3.90;;;;;;;25.47;67.70;97746.00;5088963;28;20194;-70
2023/08/13 08:30:57;;;;;;;5.10;4.07;;;;;;;25.53;67.87;97749.59;5088589;28;20194;-71
2023/08/13 08:33:23;;;;;;;6.47;5.20;;;;;;;25.59;67.83;97754.84;5093431;28;20773;-71
2023/08/13 08:35:49;;;;;;;5.93;5.10;;;;;;;25.53;66.71;97754.97;5091485;28;20265;-72
2023/08/13 08:38:14;;;;;;;5.50;4.67;;;;;;;25.49;66.75;97751.13;5093600;28;20189;-70
2023/08/13 08:40:45;;;;;;;4.80;4.40;;;;;;;25.47;67.16;97746.00;5093318;28;20207;-70
2023/08/13 08:43:11;;;;;;;6.33;4.17;;;;;;;25.51;67.53;97741.78;5092950;28;20201;-72
2023/08/13 08:45:37;;;;;;;8.37;4.83;;;;;;;25.56;67.52;97735.72;5100429;28;20451;-73
2023/08/13 08:48:04;;;;;;;8.20;5.00;;;;;;;25.68;67.74;97739.19;5091863;28;20427;-71
2023/08/13 08:50:30;;;;;;;5.03;4.53;;;;;;;25.78;68.08;97743.94;5094191;28;20433;-72
2023/08/13 08:52:56;;;;;;;4.77;4.20;;;;;;;25.83;67.34;97737.88;5094284;28;20419;-72
2023/08/13 08:55:22;;;;;;;6.67;4.80;;;;;;;25.82;66.93;97737.06;5082078;28;20229;-69
2023/08/13 08:57:48;;;;;;;6.63;4.70;;;;;;;25.82;66.53;97737.06;5095165;28;20683;-71
2023/08/13 09:00:14;;;;;;;5.27;4.10;;;;;;;25.85;66.87;97749.19;5089473;28;20714;-71
2023/08/13 09:02:41;;;;;;;5.20;4.67;;;;;;;25.88;67.58;97749.50;5095882;28;20466;-70
2023/08/13 09:05:07;;;;;;;7.10;4.90;;;;;;;25.93;67.72;97748.81;5094413;28;20181;-72
2023/08/13 09:07:32;;;;;;;5.33;4.40;;;;;;;25.98;67.69;97748.06;5072523;28;20511;-71
2023/08/13 09:09:58;;;;;;;5.27;4.30;;;;;;;25.98;67.10;97746.22;5088452;28;20228;-72
2023/08/13 09:12:24;;;;;;;6.37;5.77;;;;;;;26.06;67.14;97736.97;5094934;28;20181;-71
2023/08/13 09:14:54;;;;;;;6.27;4.90;;;;;;;26.25;67.52;97734.09;5095472;28;20989;-71
2023/08/13 09:17:22;;;;;;;7.07;4.90;;;;;;;26.51;67.67;97740.75;5101508;28;20190;-70
2023/08/13 09:19:48;;;;;;;6.20;5.33;;;;;;;26.68;66.35;97743.44;5097866;28;20569;-71
2023/08/13 09:22:13;;;;;;;4.50;4.10;;;;;;;26.86;66.33;97736.22;5093049;28;20554;-71
2023/08/13 09:24:41;;;;;;;6.93;4.90;;;;;;;27.02;65.47;97730.03;5085573;28;20265;-72
2023/08/13 09:27:08;;;;;;;5.30;4.53;;;;;;;27.14;64.63;97721.88;5083567;28;20576;-72
2023/08/13 09:29:35;;;;;;;4.93;4.00;;;;;;;27.44;63.92;97717.94;5088515;28;20537;-70
2023/08/13 09:32:02;;;;;;;7.23;4.90;;;;;;;27.75;63.91;97711.09;5092372;28;20530;-70
2023/08/13 09:34:29;;;;;;;5.53;4.90;;;;;;;28.08;61.40;97710.38;5094214;28;20419;-73
2023/08/13 09:36:56;;;;;;;4.30;3.90;;;;;;;28.18;60.08;97703.22;5093686;28;20448;-72
2023/08/13 09:39:27;;;;;;;6.73;3.90;;;;;;;28.22;59.02;97697.31;5096603;28;20489;-74
2023/08/13 09:41:53;;;;;;;4.87;3.57;;;;;;;28.26;58.95;97699.25;5093656;28;20450;-72
2023/08/13 09:44:20;;;;;;;6.47;4.23;;;;;;;28.33;59.39;97694.47;5085799;28;20530;-71
2023/08/13 09:46:52;;;;;;;5.30;3.77;;;;;;;28.33;58.73;97697.16;5097033;28;20212;-72
2023/08/13 09:49:18;;;;;;;4.60;4.03;;;;;;;28.38;58.33;97695.56;5085575;28;20995;-71
2023/08/13 09:51:46;;;;;;;4.80;4.10;;;;;;;28.48;58.96;97690.28;5091288;28;20546;-70
2023/08/13 09:54:41;;;;;;;5.80;4.33;;;;;;;28.78;58.15;97678.94;5086777;28;20193;-73
2023/08/13 09:57:10;;;;;;;8.30;4.13;;;;;;;29.23;57.82;97679.47;5076042;28;20459;-71
2023/08/13 09:59:36;;;;;;;4.17;3.80;;;;;;;29.59;55.87;97686.94;5086401;28;20446;-71
2023/08/13 10:02:11;;;;;;;3.83;3.50;;;;;;;29.83;55.12;97681.88;5093484;28;20420;-71
2023/08/13 10:04:40;;;;;;;3.70;3.30;;;;;;;30.07;54.00;97681.41;5089083;28;20193;-73
2023/08/13 10:07:06;;;;;;;4.57;3.47;;;;;;;30.21;54.21;97681.69;5085226;28;20481;-73
2023/08/13 10:09:33;;;;;;;4.00;3.10;;;;;;;30.26;53.45;97676.31;5091474;28;20427;-72
2023/08/13 10:11:59;;;;;;;4.67;3.43;;;;;;;30.24;52.71;97680.38;5091224;28;20440;-71
2023/08/13 10:14:26;;;;;;;5.43;3.80;;;;;;;30.18;51.91;97672.25;5087975;28;20427;-73
2023/08/13 10:16:51;;;;;;;6.80;3.37;;;;;;;30.18;52.52;97676.84;5087753;28;20473;-74
2023/08/13 10:19:17;;;;;;;4.20;3.57;;;;;;;30.13;53.60;97672.22;5087896;28;21007;-72
2023/08/13 10:21:53;;;;;;;5.47;3.20;;;;;;;30.01;52.88;97669.78;5088932;28;20201;-71
2023/08/13 10:24:20;;;;;;;3.67;3.33;;;;;;;30.03;53.12;97664.09;5088608;28;20835;-70
2023/08/13 10:26:45;;;;;;;4.33;3.40;;;;;;;30.02;53.54;97663.31;5097176;28;20482;-73
2023/08/13 10:29:15;;;;;;;4.50;3.33;;;;;;;30.27;52.94;97663.59;5090322;28;20524;-73
2023/08/13 10:31:48;;;;;;;4.17;3.53;;;;;;;30.48;52.80;97669.81;5087699;28;20277;-72
2023/08/13 10:34:14;;;;;;;3.47;3.03;;;;;;;30.78;51.35;97674.41;5086726;28;20430;-71
2023/08/13 10:36:48;;;;;;;3.90;3.20;;;;;;;30.92;50.28;97671.13;5088177;28;20443;-71
2023/08/13 10:39:32;;;;;;;3.53;3.10;;;;;;;31.01;50.56;97664.06;5087797;28;20427;-72
2023/08/13 10:41:58;;;;;;;3.23;2.87;;;;;;;31.09;50.21;97663.53;5088457;28;20833;-73
2023/08/13 10:44:30;;;;;;;3.33;3.03;;;;;;;31.04;49.75;97668.94;5086314;28;20423;-72
2023/08/13 10:46:56;;;;;;;5.20;3.10;;;;;;;30.96;49.67;97661.41;5086324;28;20219;-71
2023/08/13 10:49:22;;;;;;;6.40;3.30;;;;;;;30.98;49.77;97659.22;5084377;28;20436;-72
2023/08/13 10:51:48;;;;;;;4.57;3.43;;;;;;;30.97;49.99;97662.19;5092023;28;20193;-71
2023/08/13 10:54:14;;;;;;;54.70;40.87;;;;;;;30.97;50.59;97659.50;5087181;28;20202;-71
2023/08/13 10:56:45;;;;;;;36.10;28.50;;;;;;;30.96;51.09;97655.97;5083626;28;20811;-71
2023/08/13 10:59:12;;;;;;;88.80;70.73;;;;;;;30.99;51.04;97663.56;5080577;28;20274;-72
2023/08/13 11:02:09;;;;;;;20.73;16.63;;;;;;;31.15;50.59;97663.53;5094072;28;20427;-73
2023/08/13 11:04:35;;;;;;;9.57;8.57;;;;;;;31.33;50.54;97659.41;5082996;28;20527;-71
2023/08/13 11:07:01;;;;;;;6.77;4.60;;;;;;;31.57;50.16;97651.44;5085482;28;20480;-72
2023/08/13 11:09:28;;;;;;;4.93;3.60;;;;;;;31.77;49.80;97647.84;5086208;28;21022;-72
2023/08/13 11:11:54;;;;;;;3.90;3.60;;;;;;;31.83;49.94;97648.63;5091486;28;20196;-73
2023/08/13 11:14:19;;;;;;;6.30;3.23;;;;;;;31.75;49.20;97654.66;5081242;28;21023;-71
2023/08/13 11:16:47;;;;;;;4.63;3.43;;;;;;;31.74;49.15;97655.72;5093224;28;20583;-71
2023/08/13 11:19:12;;;;;;;4.17;3.27;;;;;;;31.77;49.54;97657.84;5088180;28;20186;-71
2023/08/13 11:21:38;;;;;;;3.57;2.90;;;;;;;31.79;48.98;97648.38;5087206;28;20457;-70
2023/08/13 11:24:05;;;;;;;4.27;3.37;;;;;;;31.65;48.43;97658.97;5086981;28;20744;-70
2023/08/13 11:26:34;;;;;;;4.17;3.23;;;;;;;31.57;48.98;97659.56;5089447;28;20197;-72
2023/08/13 11:29:00;;;;;;;5.23;3.20;;;;;;;31.40;49.10;97660.72;5086301;28;20436;-72